Terminal Aerodrome Forecast
Issued by NWS Knoxville/Tri Cities, TN

Home | Current Version | Previous Version | Text Only | Print | Product List | Glossary On
Versions: 1 2 3 4 5 6 7 8 9 10 11 12 13 14 15 16
000
FTUS44 KMRX 242333
TAFTYS
TAF
KTYS 242333Z 2500/2524 23008KT P6SM SCT050 BKN150
     FM250600 23010KT 5SM -SHRA BR VCTS SCT025 OVC035CB
     FM251100 24015KT P6SM VCSH BKN025
     FM251800 25015G25KT P6SM BKN250
     FM252100 26011KT P6SM SCT250=

USA.gov is the U.S. government's official web portal to all federal, state and local government web resources and services.